Terminal Aerodrome Forecast
Issued by NWS Grand Forks, ND

Home | Current Version | Previous Version | Text Only | Print | Product List | Glossary On
Versions: 1 2 3 4 5 6 7 8 9 10 11 12 13 14 15
000
FTUS43 KFGF 271720
TAFFAR
TAF
KFAR 271720Z 2718/2818 17018G25KT P6SM BKN200
     FM280400 15015KT P6SM BKN050
     FM280600 15009KT P6SM TSRA OVC035CB
     FM280900 15009KT P6SM VCTS OVC020CB
     FM281100 16008KT P6SM OVC015
     FM281600 26008KT P6SM BKN030
     FM281700 29013KT P6SM BKN040=

USA.gov is the U.S. government's official web portal to all federal, state and local government web resources and services.